AFR99UD LFMN-LFPG
Flight info
| Callsign | AFR99UD |
|---|---|
| Flight time | N/A |
| Altitude | 34000 |
| Route | OKTET DCT GIPNO DCT LOGNI DCT MOKIP DCT ARFOZ DCT TINIL |
| Aircraft | A21N/M-SDE3FGHIRWY/LB1 |
Departure
| Time | N/A |
|---|---|
| Airport | Nice-Côte d'Azur Airport (LFMN) |
Arrival
| Time | 2026-04-30 20:26 |
|---|---|
| Airport | Charles de Gaulle International Airport (LFPG) |
| Time | Latitude | Longitude | Altitude | Speed | Heading |
|---|---|---|---|---|---|
| 2026-04-30 19:46 | 47.05763 | 5.09693 | 34127 ft | 438 kts | 3° |
| 2026-04-30 19:46 | 47.11823 | 5.09719 | 34123 ft | 437 kts | 3° |
| 2026-04-30 19:47 | 47.17931 | 5.09747 | 34135 ft | 437 kts | 3° |
| 2026-04-30 19:47 | 47.24034 | 5.09770 | 34143 ft | 437 kts | 3° |
| 2026-04-30 19:48 | 47.30122 | 5.09795 | 34133 ft | 438 kts | 3° |
| 2026-04-30 19:48 | 47.33183 | 5.09808 | 33750 ft | 438 kts | 3° |
| 2026-04-30 19:48 | 47.36184 | 5.09818 | 33351 ft | 434 kts | 3° |
| 2026-04-30 19:48 | 47.39296 | 5.09829 | 32933 ft | 431 kts | 3° |
| 2026-04-30 19:49 | 47.42275 | 5.09840 | 32533 ft | 430 kts | 3° |
| 2026-04-30 19:49 | 47.48281 | 5.09866 | 31711 ft | 432 kts | 2° |
| 2026-04-30 19:49 | 47.51317 | 5.09831 | 31270 ft | 434 kts | 360° |
| 2026-04-30 19:50 | 47.54303 | 5.09353 | 30842 ft | 438 kts | 353° |
| 2026-04-30 19:50 | 47.57285 | 5.08304 | 30412 ft | 442 kts | 345° |
| 2026-04-30 19:50 | 47.60163 | 5.06695 | 29973 ft | 445 kts | 337° |
| 2026-04-30 19:50 | 47.62908 | 5.04526 | 29539 ft | 448 kts | 330° |
| 2026-04-30 19:51 | 47.65426 | 5.01874 | 29108 ft | 449 kts | 323° |
| 2026-04-30 19:51 | 47.67824 | 4.98893 | 28676 ft | 446 kts | 321° |
| 2026-04-30 19:51 | 47.70147 | 4.95894 | 28251 ft | 444 kts | 320° |
| 2026-04-30 19:51 | 47.72464 | 4.92916 | 27825 ft | 441 kts | 321° |
| 2026-04-30 19:52 | 47.74777 | 4.89976 | 27415 ft | 438 kts | 321° |
| 2026-04-30 19:52 | 47.77098 | 4.87039 | 27095 ft | 436 kts | 321° |
| 2026-04-30 19:52 | 47.79380 | 4.84153 | 26806 ft | 434 kts | 321° |
| 2026-04-30 19:52 | 47.81668 | 4.81252 | 26516 ft | 433 kts | 321° |
| 2026-04-30 19:53 | 47.83954 | 4.78349 | 26224 ft | 431 kts | 321° |
| 2026-04-30 19:53 | 47.86225 | 4.75460 | 25933 ft | 429 kts | 321° |
| 2026-04-30 19:53 | 47.88461 | 4.72610 | 25646 ft | 428 kts | 321° |
| 2026-04-30 19:53 | 47.90767 | 4.69670 | 25354 ft | 426 kts | 321° |
| 2026-04-30 19:54 | 47.93042 | 4.66763 | 25065 ft | 425 kts | 321° |
| 2026-04-30 19:54 | 47.95274 | 4.63908 | 24779 ft | 423 kts | 321° |
| 2026-04-30 19:54 | 47.97499 | 4.61059 | 24492 ft | 422 kts | 321° |
| 2026-04-30 19:54 | 47.99715 | 4.58219 | 24207 ft | 420 kts | 321° |
| 2026-04-30 19:55 | 48.01918 | 4.55391 | 23923 ft | 419 kts | 321° |
| 2026-04-30 19:55 | 48.04110 | 4.52574 | 23638 ft | 417 kts | 321° |
| 2026-04-30 19:55 | 48.06316 | 4.49735 | 23352 ft | 416 kts | 321° |
| 2026-04-30 19:55 | 48.08496 | 4.46928 | 23069 ft | 414 kts | 321° |
| 2026-04-30 19:56 | 48.10596 | 4.44219 | 22798 ft | 412 kts | 321° |
| 2026-04-30 19:56 | 48.12750 | 4.41439 | 22517 ft | 410 kts | 321° |
| 2026-04-30 19:56 | 48.14897 | 4.38661 | 22235 ft | 409 kts | 321° |
| 2026-04-30 19:56 | 48.17049 | 4.35874 | 21955 ft | 407 kts | 321° |
| 2026-04-30 19:57 | 48.19189 | 4.33099 | 21675 ft | 405 kts | 321° |
| 2026-04-30 19:57 | 48.21309 | 4.30348 | 21400 ft | 404 kts | 321° |
| 2026-04-30 19:57 | 48.23422 | 4.27604 | 21127 ft | 402 kts | 321° |
| 2026-04-30 19:57 | 48.25478 | 4.24790 | 20848 ft | 401 kts | 317° |
| 2026-04-30 19:58 | 48.27403 | 4.21790 | 20561 ft | 400 kts | 313° |
| 2026-04-30 19:58 | 48.29204 | 4.18623 | 20284 ft | 399 kts | 310° |
| 2026-04-30 19:58 | 48.30947 | 4.15425 | 19993 ft | 398 kts | 310° |
| 2026-04-30 19:58 | 48.32701 | 4.12192 | 19655 ft | 396 kts | 310° |
| 2026-04-30 19:59 | 48.34431 | 4.09014 | 19333 ft | 394 kts | 310° |
| 2026-04-30 19:59 | 48.36161 | 4.05852 | 19050 ft | 392 kts | 310° |
| 2026-04-30 19:59 | 48.39611 | 3.99549 | 18549 ft | 389 kts | 310° |
| 2026-04-30 20:00 | 48.41314 | 3.96428 | 18330 ft | 388 kts | 310° |
| 2026-04-30 20:00 | 48.43016 | 3.93303 | 18060 ft | 386 kts | 310° |
| 2026-04-30 20:00 | 48.44717 | 3.90178 | 17825 ft | 384 kts | 310° |
| 2026-04-30 20:00 | 48.46414 | 3.87053 | 17563 ft | 383 kts | 310° |
| 2026-04-30 20:01 | 48.49760 | 3.80885 | 17031 ft | 380 kts | 310° |
| 2026-04-30 20:01 | 48.51424 | 3.77812 | 16762 ft | 378 kts | 310° |
| 2026-04-30 20:01 | 48.53067 | 3.74763 | 16493 ft | 376 kts | 309° |
| 2026-04-30 20:02 | 48.56034 | 3.68355 | 15955 ft | 374 kts | 304° |
| 2026-04-30 20:02 | 48.57437 | 3.65069 | 15687 ft | 373 kts | 303° |
| 2026-04-30 20:03 | 48.60234 | 3.58509 | 15139 ft | 369 kts | 304° |
| 2026-04-30 20:03 | 48.61612 | 3.55293 | 14867 ft | 367 kts | 304° |
| 2026-04-30 20:03 | 48.63005 | 3.52049 | 14594 ft | 366 kts | 304° |
| 2026-04-30 20:03 | 48.64384 | 3.48835 | 14319 ft | 364 kts | 304° |
| 2026-04-30 20:04 | 48.65756 | 3.45630 | 14169 ft | 362 kts | 304° |
| 2026-04-30 20:04 | 48.67112 | 3.42455 | 14161 ft | 363 kts | 304° |
| 2026-04-30 20:04 | 48.68475 | 3.39259 | 14164 ft | 364 kts | 304° |
| 2026-04-30 20:05 | 48.71224 | 3.32801 | 14161 ft | 364 kts | 303° |
| 2026-04-30 20:05 | 48.72594 | 3.29575 | 14157 ft | 364 kts | 303° |
| 2026-04-30 20:05 | 48.75328 | 3.23124 | 14159 ft | 364 kts | 303° |
| 2026-04-30 20:06 | 48.76701 | 3.19877 | 14164 ft | 364 kts | 303° |
| 2026-04-30 20:06 | 48.78059 | 3.16661 | 14163 ft | 364 kts | 303° |
| 2026-04-30 20:06 | 48.79422 | 3.13433 | 14161 ft | 364 kts | 303° |
| 2026-04-30 20:06 | 48.80781 | 3.10208 | 14160 ft | 364 kts | 303° |
| 2026-04-30 20:07 | 48.82139 | 3.06980 | 14161 ft | 365 kts | 303° |
| 2026-04-30 20:07 | 48.83527 | 3.03736 | 14163 ft | 365 kts | 305° |
| 2026-04-30 20:07 | 48.86686 | 2.97719 | 14035 ft | 364 kts | 313° |
| 2026-04-30 20:08 | 48.88369 | 2.94917 | 13797 ft | 362 kts | 314° |
| 2026-04-30 20:08 | 48.90073 | 2.92113 | 13559 ft | 360 kts | 314° |
| 2026-04-30 20:08 | 48.91751 | 2.89343 | 13282 ft | 358 kts | 313° |
| 2026-04-30 20:08 | 48.93144 | 2.86235 | 13160 ft | 358 kts | 293° |
| 2026-04-30 20:09 | 48.93682 | 2.82532 | 13147 ft | 358 kts | 270° |
| 2026-04-30 20:09 | 48.93534 | 2.78811 | 13135 ft | 357 kts | 264° |
| 2026-04-30 20:09 | 48.93068 | 2.71470 | 13152 ft | 332 kts | 263° |
| 2026-04-30 20:10 | 48.92674 | 2.64756 | 13174 ft | 319 kts | 264° |
| 2026-04-30 20:10 | 48.92486 | 2.61399 | 13174 ft | 318 kts | 264° |
| 2026-04-30 20:10 | 48.92302 | 2.58050 | 13176 ft | 318 kts | 264° |
| 2026-04-30 20:11 | 48.91935 | 2.51361 | 12911 ft | 317 kts | 264° |
| 2026-04-30 20:11 | 48.91753 | 2.48033 | 12666 ft | 315 kts | 264° |
| 2026-04-30 20:11 | 48.91569 | 2.44700 | 12392 ft | 314 kts | 264° |
| 2026-04-30 20:12 | 48.91207 | 2.38145 | 11853 ft | 310 kts | 264° |
| 2026-04-30 20:12 | 48.91024 | 2.34880 | 11583 ft | 309 kts | 263° |
| 2026-04-30 20:12 | 48.90841 | 2.31647 | 11312 ft | 307 kts | 263° |
| 2026-04-30 20:13 | 48.90657 | 2.28409 | 11037 ft | 305 kts | 263° |
| 2026-04-30 20:13 | 48.90476 | 2.25235 | 10767 ft | 304 kts | 263° |
| 2026-04-30 20:13 | 48.90293 | 2.22051 | 10492 ft | 300 kts | 263° |
| 2026-04-30 20:13 | 48.90113 | 2.18939 | 10224 ft | 295 kts | 263° |
| 2026-04-30 20:14 | 48.89935 | 2.15857 | 9938 ft | 287 kts | 263° |
| 2026-04-30 20:14 | 48.89762 | 2.12880 | 9664 ft | 279 kts | 263° |
| 2026-04-30 20:14 | 48.89611 | 2.09992 | 9395 ft | 272 kts | 264° |
| 2026-04-30 20:14 | 48.89470 | 2.07152 | 9119 ft | 264 kts | 264° |
| 2026-04-30 20:15 | 48.89334 | 2.04408 | 8841 ft | 258 kts | 264° |
| 2026-04-30 20:15 | 48.89199 | 2.01719 | 8531 ft | 257 kts | 264° |
| 2026-04-30 20:15 | 48.89062 | 1.99076 | 8218 ft | 255 kts | 264° |
| 2026-04-30 20:15 | 48.88924 | 1.96420 | 7897 ft | 253 kts | 264° |
| 2026-04-30 20:16 | 48.88783 | 1.93779 | 7574 ft | 251 kts | 264° |
| 2026-04-30 20:16 | 48.88787 | 1.91124 | 7255 ft | 251 kts | 282° |
| 2026-04-30 20:16 | 48.89549 | 1.88801 | 6967 ft | 249 kts | 313° |
| 2026-04-30 20:16 | 48.90966 | 1.87382 | 6656 ft | 247 kts | 344° |
| 2026-04-30 20:17 | 48.92657 | 1.87251 | 6341 ft | 245 kts | 15° |
| 2026-04-30 20:17 | 48.94129 | 1.88431 | 6015 ft | 241 kts | 47° |
| 2026-04-30 20:17 | 48.95032 | 1.90538 | 5704 ft | 237 kts | 68° |
| 2026-04-30 20:17 | 48.95577 | 1.92918 | 5369 ft | 235 kts | 79° |
| 2026-04-30 20:18 | 48.95864 | 1.95349 | 5066 ft | 232 kts | 82° |
| 2026-04-30 20:18 | 48.96119 | 1.97747 | 4964 ft | 230 kts | 83° |
| 2026-04-30 20:18 | 48.96339 | 2.00170 | 4976 ft | 231 kts | 84° |
| 2026-04-30 20:18 | 48.96526 | 2.02598 | 4973 ft | 231 kts | 85° |
| 2026-04-30 20:19 | 48.96687 | 2.05027 | 4978 ft | 231 kts | 86° |
| 2026-04-30 20:19 | 48.96830 | 2.07467 | 4974 ft | 230 kts | 86° |
| 2026-04-30 20:19 | 48.96957 | 2.09866 | 4974 ft | 229 kts | 87° |
| 2026-04-30 20:19 | 48.97075 | 2.12229 | 4960 ft | 220 kts | 87° |
| 2026-04-30 20:20 | 48.97184 | 2.14508 | 5060 ft | 211 kts | 87° |
| 2026-04-30 20:20 | 48.97286 | 2.16683 | 5007 ft | 197 kts | 88° |
| 2026-04-30 20:20 | 48.97381 | 2.18694 | 4968 ft | 187 kts | 88° |
| 2026-04-30 20:20 | 48.97473 | 2.20664 | 4836 ft | 187 kts | 88° |
| 2026-04-30 20:21 | 48.97565 | 2.22630 | 4596 ft | 186 kts | 88° |
| 2026-04-30 20:21 | 48.97659 | 2.24587 | 4353 ft | 185 kts | 88° |
| 2026-04-30 20:21 | 48.97753 | 2.26538 | 4114 ft | 184 kts | 88° |
| 2026-04-30 20:21 | 48.97847 | 2.28445 | 3881 ft | 182 kts | 88° |
| 2026-04-30 20:22 | 48.97942 | 2.30367 | 3641 ft | 181 kts | 88° |
| 2026-04-30 20:22 | 48.98037 | 2.32265 | 3407 ft | 179 kts | 88° |
| 2026-04-30 20:22 | 48.98132 | 2.34135 | 3175 ft | 177 kts | 88° |
| 2026-04-30 20:22 | 48.98226 | 2.35988 | 2948 ft | 175 kts | 88° |
| 2026-04-30 20:23 | 48.98320 | 2.37836 | 2720 ft | 173 kts | 89° |
| 2026-04-30 20:23 | 48.98414 | 2.39658 | 2491 ft | 170 kts | 89° |
| 2026-04-30 20:23 | 48.98505 | 2.41417 | 2264 ft | 163 kts | 89° |
| 2026-04-30 20:23 | 48.98592 | 2.43062 | 2040 ft | 149 kts | 89° |
| 2026-04-30 20:24 | 48.98671 | 2.44578 | 1851 ft | 137 kts | 89° |
| 2026-04-30 20:24 | 48.98744 | 2.46027 | 1703 ft | 136 kts | 89° |
| 2026-04-30 20:24 | 48.98817 | 2.47445 | 1536 ft | 135 kts | 88° |
| 2026-04-30 20:24 | 48.98890 | 2.48862 | 1353 ft | 133 kts | 88° |
| 2026-04-30 20:25 | 48.99039 | 2.51659 | 980 ft | 133 kts | 88° |
| 2026-04-30 20:25 | 48.99103 | 2.53071 | 808 ft | 132 kts | 86° |
| 2026-04-30 20:26 | 48.99252 | 2.55844 | 468 ft | 130 kts | 85° |
| 2026-04-30 20:26 | 48.99383 | 2.58279 | 335 ft | 77 kts | 85° |
| 2026-04-30 20:26 | 48.99412 | 2.58854 | 327 ft | 42 kts | 84° |
| 2026-04-30 20:27 | 48.99530 | 2.59461 | 324 ft | 21 kts | 65° |
| 2026-04-30 20:27 | 48.99620 | 2.59686 | 325 ft | 8 kts | 21° |
| 2026-04-30 20:28 | 48.99740 | 2.59672 | 326 ft | 8 kts | 356° |
| 2026-04-30 20:28 | 48.99872 | 2.59667 | 328 ft | 10 kts | 356° |
| 2026-04-30 20:29 | 49.00016 | 2.59650 | 331 ft | 9 kts | 354° |
| 2026-04-30 20:30 | 49.00221 | 2.59624 | 334 ft | 9 kts | 355° |
| 2026-04-30 20:30 | 49.00454 | 2.59596 | 336 ft | 13 kts | 355° |
| 2026-04-30 20:31 | 49.00749 | 2.59559 | 339 ft | 15 kts | 355° |
| 2026-04-30 20:32 | 49.01001 | 2.59431 | 341 ft | 14 kts | 265° |
| 2026-04-30 20:32 | 49.00983 | 2.59131 | 342 ft | 14 kts | 265° |
| 2026-04-30 20:33 | 49.00961 | 2.58980 | 342 ft | 14 kts | 253° |
| 2026-04-30 20:33 | 49.00937 | 2.58670 | 344 ft | 14 kts | 264° |
| 2026-04-30 20:33 | 49.00928 | 2.58520 | 345 ft | 14 kts | 265° |
| 2026-04-30 20:34 | 49.00914 | 2.58246 | 349 ft | 12 kts | 265° |
| 2026-04-30 20:34 | 49.00856 | 2.58108 | 350 ft | 7 kts | 194° |
| 2026-04-30 20:35 | 49.00820 | 2.58076 | 350 ft | 4 kts | 238° |
| 2026-04-30 20:35 | 49.00812 | 2.58025 | 351 ft | 5 kts | 262° |
| 2026-04-30 20:35 | 49.00801 | 2.57924 | 352 ft | 3 kts | 233° |
| 2026-04-30 20:36 | 49.00786 | 2.57918 | 353 ft | 2 kts | 179° |
| 2026-04-30 20:36 | 49.00763 | 2.57917 | 353 ft | 3 kts | 182° |
| 2026-04-30 20:36 | 49.00747 | 2.57916 | 352 ft | 0 kts | 184° |